OYCAT EKRK-EKRK
Flight info
| Callsign | OYCAT |
|---|---|
| Flight time | 0h 6m |
| Altitude | 1500 |
| Route | RUNDER |
| Aircraft | BN2/L-V/N |
Departure
| Time | 2026-05-08 19:58 |
|---|---|
| Airport | Copenhagen Roskilde Airport (EKRK) |
Arrival
| Time | 2026-05-08 20:04 |
|---|---|
| Airport | Copenhagen Roskilde Airport (EKRK) |
| Time | Latitude | Longitude | Altitude | Speed | Heading |
|---|---|---|---|---|---|
| 2026-05-08 19:43 | 55.59133 | 12.13190 | 139 ft | 0 kts | 118° |
| 2026-05-08 19:46 | 55.59132 | 12.13194 | 139 ft | 3 kts | 112° |
| 2026-05-08 19:46 | 55.59136 | 12.13265 | 139 ft | 6 kts | 88° |
| 2026-05-08 19:46 | 55.59096 | 12.13324 | 139 ft | 7 kts | 206° |
| 2026-05-08 19:47 | 55.59029 | 12.13265 | 139 ft | 13 kts | 206° |
| 2026-05-08 19:47 | 55.58949 | 12.13195 | 139 ft | 12 kts | 205° |
| 2026-05-08 19:47 | 55.58884 | 12.13138 | 139 ft | 9 kts | 207° |
| 2026-05-08 19:47 | 55.58818 | 12.13081 | 139 ft | 11 kts | 206° |
| 2026-05-08 19:48 | 55.58773 | 12.13013 | 139 ft | 7 kts | 273° |
| 2026-05-08 19:48 | 55.58802 | 12.12897 | 139 ft | 16 kts | 297° |
| 2026-05-08 19:48 | 55.58857 | 12.12704 | 139 ft | 17 kts | 296° |
| 2026-05-08 19:48 | 55.58906 | 12.12535 | 139 ft | 14 kts | 295° |
| 2026-05-08 19:49 | 55.58944 | 12.12390 | 139 ft | 13 kts | 294° |
| 2026-05-08 19:49 | 55.58991 | 12.12216 | 139 ft | 18 kts | 296° |
| 2026-05-08 19:49 | 55.59050 | 12.12012 | 139 ft | 18 kts | 297° |
| 2026-05-08 19:49 | 55.59082 | 12.11838 | 139 ft | 13 kts | 257° |
| 2026-05-08 19:50 | 55.59063 | 12.11738 | 139 ft | 6 kts | 251° |
| 2026-05-08 19:50 | 55.59061 | 12.11725 | 139 ft | 0 kts | 253° |
| 2026-05-08 19:52 | 55.59061 | 12.11724 | 139 ft | 1 kts | 253° |
| 2026-05-08 19:52 | 55.59048 | 12.11654 | 139 ft | 10 kts | 249° |
| 2026-05-08 19:52 | 55.58998 | 12.11596 | 140 ft | 7 kts | 184° |
| 2026-05-08 19:52 | 55.58975 | 12.11634 | 140 ft | 0 kts | 117° |
| 2026-05-08 19:57 | 55.58933 | 12.11782 | 142 ft | 47 kts | 116° |
| 2026-05-08 19:57 | 55.58709 | 12.12579 | 271 ft | 79 kts | 116° |
| 2026-05-08 19:57 | 55.58462 | 12.13419 | 580 ft | 78 kts | 120° |
| 2026-05-08 19:58 | 55.58173 | 12.14280 | 814 ft | 83 kts | 121° |
| 2026-05-08 19:58 | 55.57732 | 12.14743 | 1156 ft | 80 kts | 184° |
| 2026-05-08 19:58 | 55.57354 | 12.13833 | 1251 ft | 110 kts | 257° |
| 2026-05-08 19:58 | 55.57486 | 12.12485 | 1302 ft | 114 kts | 297° |
| 2026-05-08 19:59 | 55.57862 | 12.11276 | 1256 ft | 111 kts | 303° |
| 2026-05-08 19:59 | 55.58263 | 12.10143 | 1256 ft | 108 kts | 306° |
| 2026-05-08 19:59 | 55.58657 | 12.09007 | 1210 ft | 106 kts | 304° |
| 2026-05-08 19:59 | 55.59080 | 12.08041 | 1137 ft | 94 kts | 329° |
| 2026-05-08 20:00 | 55.59646 | 12.07871 | 1033 ft | 79 kts | 28° |
| 2026-05-08 20:00 | 55.59910 | 12.08608 | 848 ft | 75 kts | 100° |
| 2026-05-08 20:00 | 55.59632 | 12.09428 | 641 ft | 82 kts | 127° |
| 2026-05-08 20:00 | 55.59351 | 12.10257 | 427 ft | 73 kts | 118° |
| 2026-05-08 20:01 | 55.59154 | 12.10990 | 277 ft | 62 kts | 118° |
| 2026-05-08 20:01 | 55.58966 | 12.11669 | 158 ft | 62 kts | 118° |
| 2026-05-08 20:01 | 55.58794 | 12.12280 | 138 ft | 61 kts | 116° |
| 2026-05-08 20:01 | 55.58580 | 12.13004 | 450 ft | 59 kts | 117° |
| 2026-05-08 20:02 | 55.58403 | 12.13649 | 722 ft | 59 kts | 114° |
| 2026-05-08 20:02 | 55.58217 | 12.14320 | 945 ft | 65 kts | 125° |
| 2026-05-08 20:02 | 55.57792 | 12.14461 | 1160 ft | 77 kts | 195° |
| 2026-05-08 20:02 | 55.57464 | 12.13573 | 1270 ft | 102 kts | 256° |
| 2026-05-08 20:03 | 55.57545 | 12.12318 | 1281 ft | 101 kts | 289° |
| 2026-05-08 20:03 | 55.57859 | 12.11287 | 1299 ft | 92 kts | 303° |
| 2026-05-08 20:03 | 55.58146 | 12.10370 | 1281 ft | 79 kts | 298° |
| 2026-05-08 20:03 | 55.58494 | 12.09608 | 996 ft | 79 kts | 338° |
| 2026-05-08 20:04 | 55.58998 | 12.09649 | 728 ft | 70 kts | 41° |
| 2026-05-08 20:04 | 55.59187 | 12.10414 | 438 ft | 72 kts | 91° |
| 2026-05-08 20:04 | 55.59080 | 12.11254 | 215 ft | 67 kts | 119° |
| 2026-05-08 20:04 | 55.58905 | 12.11877 | 141 ft | 45 kts | 114° |
| 2026-05-08 20:05 | 55.58724 | 12.12518 | 234 ft | 68 kts | 117° |
| 2026-05-08 20:05 | 55.58542 | 12.13195 | 580 ft | 60 kts | 116° |
| 2026-05-08 20:05 | 55.58348 | 12.13877 | 825 ft | 64 kts | 117° |
| 2026-05-08 20:05 | 55.58048 | 12.14381 | 1137 ft | 66 kts | 164° |
| 2026-05-08 20:06 | 55.57574 | 12.13892 | 1321 ft | 96 kts | 221° |
| 2026-05-08 20:06 | 55.57377 | 12.12740 | 1366 ft | 106 kts | 275° |
| 2026-05-08 20:06 | 55.57661 | 12.11570 | 1366 ft | 98 kts | 305° |
| 2026-05-08 20:06 | 55.58030 | 12.10628 | 1310 ft | 90 kts | 311° |
| 2026-05-08 20:07 | 55.58392 | 12.09765 | 1232 ft | 85 kts | 309° |
| 2026-05-08 20:07 | 55.58699 | 12.08913 | 1149 ft | 80 kts | 302° |
| 2026-05-08 20:07 | 55.59123 | 12.08593 | 919 ft | 68 kts | 34° |
| 2026-05-08 20:07 | 55.59325 | 12.09273 | 665 ft | 69 kts | 88° |
| 2026-05-08 20:08 | 55.59296 | 12.10156 | 423 ft | 73 kts | 104° |
| 2026-05-08 20:08 | 55.59152 | 12.10973 | 247 ft | 66 kts | 117° |
| 2026-05-08 20:08 | 55.58977 | 12.11622 | 140 ft | 49 kts | 118° |
| 2026-05-08 20:08 | 55.58761 | 12.12400 | 201 ft | 85 kts | 118° |
| 2026-05-08 20:09 | 55.58499 | 12.13223 | 599 ft | 75 kts | 121° |
| 2026-05-08 20:09 | 55.58173 | 12.14139 | 816 ft | 91 kts | 122° |
| 2026-05-08 20:09 | 55.57786 | 12.14872 | 1273 ft | 84 kts | 152° |
| 2026-05-08 20:09 | 55.57182 | 12.14479 | 1389 ft | 110 kts | 238° |
| 2026-05-08 20:10 | 55.57304 | 12.13097 | 1424 ft | 125 kts | 297° |
| 2026-05-08 20:10 | 55.57698 | 12.11772 | 1396 ft | 118 kts | 302° |
| 2026-05-08 20:10 | 55.58112 | 12.10576 | 1375 ft | 113 kts | 304° |
| 2026-05-08 20:10 | 55.58518 | 12.09451 | 1315 ft | 102 kts | 308° |
| 2026-05-08 20:11 | 55.58915 | 12.08490 | 1262 ft | 91 kts | 325° |
| 2026-05-08 20:11 | 55.59447 | 12.08344 | 1119 ft | 77 kts | 33° |
| 2026-05-08 20:11 | 55.59669 | 12.09069 | 892 ft | 71 kts | 99° |
| 2026-05-08 20:11 | 55.59446 | 12.09932 | 586 ft | 81 kts | 120° |
| 2026-05-08 20:12 | 55.59208 | 12.10793 | 338 ft | 74 kts | 119° |
| 2026-05-08 20:12 | 55.59000 | 12.11537 | 168 ft | 63 kts | 118° |
| 2026-05-08 20:12 | 55.58830 | 12.12153 | 140 ft | 58 kts | 116° |
| 2026-05-08 20:12 | 55.58613 | 12.12886 | 411 ft | 61 kts | 118° |
| 2026-05-08 20:13 | 55.58373 | 12.13526 | 205 ft | 61 kts | 126° |
| 2026-05-08 20:13 | 55.58157 | 12.14234 | 321 ft | 65 kts | 111° |
| 2026-05-08 20:13 | 55.58030 | 12.15013 | 635 ft | 66 kts | 102° |
| 2026-05-08 20:13 | 55.57715 | 12.15493 | 898 ft | 73 kts | 181° |
| 2026-05-08 20:14 | 55.57374 | 12.14693 | 1044 ft | 99 kts | 255° |
| 2026-05-08 20:14 | 55.57447 | 12.13433 | 1180 ft | 112 kts | 289° |
| 2026-05-08 20:14 | 55.57755 | 12.12061 | 1186 ft | 126 kts | 295° |
| 2026-05-08 20:14 | 55.58137 | 12.10648 | 1230 ft | 128 kts | 298° |
| 2026-05-08 20:15 | 55.58556 | 12.09378 | 1204 ft | 106 kts | 323° |
| 2026-05-08 20:15 | 55.59163 | 12.09259 | 971 ft | 88 kts | 35° |
| 2026-05-08 20:15 | 55.59374 | 12.10176 | 590 ft | 91 kts | 106° |
| 2026-05-08 20:15 | 55.59100 | 12.11173 | 260 ft | 86 kts | 117° |
| 2026-05-08 20:16 | 55.58879 | 12.11979 | 143 ft | 60 kts | 117° |
| 2026-05-08 20:16 | 55.58695 | 12.12632 | 142 ft | 78 kts | 119° |
| 2026-05-08 20:16 | 55.58447 | 12.13409 | 523 ft | 68 kts | 121° |
| 2026-05-08 20:16 | 55.58214 | 12.14122 | 824 ft | 67 kts | 121° |
| 2026-05-08 20:17 | 55.57752 | 12.14329 | 1013 ft | 94 kts | 206° |
| 2026-05-08 20:17 | 55.57410 | 12.13203 | 1073 ft | 113 kts | 262° |
| 2026-05-08 20:17 | 55.57583 | 12.11854 | 1113 ft | 116 kts | 295° |
| 2026-05-08 20:17 | 55.57951 | 12.10574 | 1135 ft | 115 kts | 298° |
| 2026-05-08 20:18 | 55.58302 | 12.09306 | 1176 ft | 114 kts | 296° |
| 2026-05-08 20:18 | 55.58620 | 12.08040 | 1239 ft | 109 kts | 294° |
| 2026-05-08 20:18 | 55.58911 | 12.06830 | 1319 ft | 106 kts | 294° |
| 2026-05-08 20:18 | 55.59182 | 12.05614 | 1342 ft | 107 kts | 292° |
| 2026-05-08 20:19 | 55.59471 | 12.04408 | 1372 ft | 97 kts | 295° |
| 2026-05-08 20:19 | 55.59749 | 12.03478 | 1339 ft | 82 kts | 316° |
| 2026-05-08 20:19 | 55.60271 | 12.03162 | 1305 ft | 82 kts | 15° |
| 2026-05-08 20:19 | 55.60715 | 12.03616 | 1332 ft | 72 kts | 69° |
| 2026-05-08 20:20 | 55.60784 | 12.04539 | 1257 ft | 81 kts | 97° |
| 2026-05-08 20:20 | 55.60654 | 12.05476 | 1143 ft | 75 kts | 110° |
| 2026-05-08 20:20 | 55.60440 | 12.06280 | 970 ft | 66 kts | 115° |
| 2026-05-08 20:20 | 55.60250 | 12.06971 | 826 ft | 61 kts | 115° |
| 2026-05-08 20:21 | 55.60063 | 12.07661 | 688 ft | 63 kts | 116° |
| 2026-05-08 20:21 | 55.59893 | 12.08361 | 578 ft | 61 kts | 112° |
| 2026-05-08 20:21 | 55.59707 | 12.09027 | 493 ft | 61 kts | 122° |
| 2026-05-08 20:21 | 55.59515 | 12.09661 | 404 ft | 57 kts | 116° |
| 2026-05-08 20:22 | 55.59349 | 12.10302 | 314 ft | 60 kts | 117° |
| 2026-05-08 20:22 | 55.59151 | 12.10986 | 252 ft | 65 kts | 118° |
| 2026-05-08 20:22 | 55.58956 | 12.11701 | 165 ft | 63 kts | 117° |
| 2026-05-08 20:22 | 55.58836 | 12.12132 | 141 ft | 52 kts | 117° |
| 2026-05-08 20:23 | 55.58682 | 12.12687 | 138 ft | 26 kts | 117° |
| 2026-05-08 20:23 | 55.58637 | 12.12880 | 139 ft | 10 kts | 72° |
| 2026-05-08 20:23 | 55.58681 | 12.12947 | 139 ft | 7 kts | 31° |
| 2026-05-08 20:23 | 55.58724 | 12.12993 | 139 ft | 5 kts | 31° |
| 2026-05-08 20:24 | 55.58739 | 12.13008 | 139 ft | 0 kts | 32° |
| 2026-05-08 20:27 | 55.58763 | 12.13025 | 139 ft | 9 kts | 5° |
| 2026-05-08 20:27 | 55.58824 | 12.13004 | 139 ft | 8 kts | 6° |
| 2026-05-08 20:27 | 55.58864 | 12.13037 | 139 ft | 6 kts | 25° |
| 2026-05-08 20:27 | 55.58895 | 12.13061 | 139 ft | 6 kts | 24° |
| 2026-05-08 20:28 | 55.58985 | 12.13140 | 139 ft | 22 kts | 26° |
| 2026-05-08 20:28 | 55.59116 | 12.13253 | 139 ft | 19 kts | 24° |
| 2026-05-08 20:28 | 55.59180 | 12.13271 | 139 ft | 8 kts | 308° |
| 2026-05-08 20:28 | 55.59209 | 12.13176 | 139 ft | 11 kts | 297° |
| 2026-05-08 20:29 | 55.59240 | 12.13073 | 139 ft | 4 kts | 322° |
| 2026-05-08 20:29 | 55.59269 | 12.13083 | 139 ft | 7 kts | 27° |
| 2026-05-08 20:29 | 55.59318 | 12.13125 | 139 ft | 6 kts | 26° |
| 2026-05-08 20:29 | 55.59328 | 12.13134 | 139 ft | 0 kts | 34° |